sensor_id;sensor_type;location;lat;lon;timestamp;pressure;altitude;pressure_sealevel;temperature;humidity
41636;BME280;27623;51.966;4.602;2023-03-24T00:00:40;64528.81;;;12.13;100.00
41636;BME280;27623;51.966;4.602;2023-03-24T00:03:05;64539.94;;;12.11;100.00
41636;BME280;27623;51.966;4.602;2023-03-24T00:05:31;64575.13;;;12.25;100.00
41636;BME280;27623;51.966;4.602;2023-03-24T00:07:57;64548.13;;;12.19;100.00
41636;BME280;27623;51.966;4.602;2023-03-24T00:10:24;64525.50;;;12.24;100.00
41636;BME280;27623;51.966;4.602;2023-03-24T00:12:55;64527.34;;;12.21;100.00
41636;BME280;27623;51.966;4.602;2023-03-24T00:15:23;64581.34;;;12.26;100.00
41636;BME280;27623;51.966;4.602;2023-03-24T00:17:48;64527.28;;;12.28;100.00
41636;BME280;27623;51.966;4.602;2023-03-24T00:20:15;64557.59;;;12.30;100.00
41636;BME280;27623;51.966;4.602;2023-03-24T00:22:43;64555.03;;;12.37;100.00
41636;BME280;27623;51.966;4.602;2023-03-24T00:25:19;64586.59;;;12.35;100.00
41636;BME280;27623;51.966;4.602;2023-03-24T00:27:47;64546.25;;;12.43;100.00
41636;BME280;27623;51.966;4.602;2023-03-24T00:30:15;64572.69;;;12.49;100.00
41636;BME280;27623;51.966;4.602;2023-03-24T00:32:43;64607.91;;;12.48;100.00
41636;BME280;27623;51.966;4.602;2023-03-24T00:35:10;64546.59;;;12.48;100.00
41636;BME280;27623;51.966;4.602;2023-03-24T00:37:37;64534.34;;;12.49;100.00
41636;BME280;27623;51.966;4.602;2023-03-24T00:40:09;64541.47;;;12.48;100.00
41636;BME280;27623;51.966;4.602;2023-03-24T00:42:39;64594.97;;;12.46;100.00
41636;BME280;27623;51.966;4.602;2023-03-24T00:45:12;64597.34;;;12.50;100.00
41636;BME280;27623;51.966;4.602;2023-03-24T00:47:38;64564.31;;;12.46;100.00
41636;BME280;27623;51.966;4.602;2023-03-24T00:50:09;64585.84;;;12.47;100.00
41636;BME280;27623;51.966;4.602;2023-03-24T00:52:35;64580.94;;;12.42;100.00
41636;BME280;27623;51.966;4.602;2023-03-24T00:55:04;64571.63;;;12.41;100.00
41636;BME280;27623;51.966;4.602;2023-03-24T00:57:31;64559.22;;;12.38;100.00
41636;BME280;27623;51.966;4.602;2023-03-24T01:00:06;64557.03;;;12.36;100.00
41636;BME280;27623;51.966;4.602;2023-03-24T01:02:37;64560.84;;;12.40;100.00
41636;BME280;27623;51.966;4.602;2023-03-24T01:05:03;64534.22;;;12.39;100.00
41636;BME280;27623;51.966;4.602;2023-03-24T01:07:29;64559.59;;;12.29;100.00
41636;BME280;27623;51.966;4.602;2023-03-24T01:09:58;64533.28;;;12.41;100.00
41636;BME280;27623;51.966;4.602;2023-03-24T01:12:24;64542.06;;;12.42;100.00
41636;BME280;27623;51.966;4.602;2023-03-24T01:14:50;64567.25;;;12.36;100.00
41636;BME280;27623;51.966;4.602;2023-03-24T01:17:17;64549.91;;;12.44;100.00
41636;BME280;27623;51.966;4.602;2023-03-24T01:19:43;64559.75;;;12.39;100.00
41636;BME280;27623;51.966;4.602;2023-03-24T01:22:09;64549.91;;;12.44;100.00
41636;BME280;27623;51.966;4.602;2023-03-24T01:24:35;64559.53;;;12.51;100.00
41636;BME280;27623;51.966;4.602;2023-03-24T01:27:02;64583.66;;;12.45;100.00
41636;BME280;27623;51.966;4.602;2023-03-24T01:29:29;64581.06;;;12.52;100.00
41636;BME280;27623;51.966;4.602;2023-03-24T01:31:55;64577.22;;;12.62;100.00
41636;BME280;27623;51.966;4.602;2023-03-24T01:34:21;64578.88;;;12.50;100.00
41636;BME280;27623;51.966;4.602;2023-03-24T01:36:46;64614.66;;;12.57;100.00
41636;BME280;27623;51.966;4.602;2023-03-24T01:39:12;64578.53;;;12.52;100.00
41636;BME280;27623;51.966;4.602;2023-03-24T01:41:38;64611.91;;;12.61;100.00
41636;BME280;27623;51.966;4.602;2023-03-24T01:47:17;64592.03;;;12.48;100.00
41636;BME280;27623;51.966;4.602;2023-03-24T01:49:52;64593.69;;;12.49;100.00
41636;BME280;27623;51.966;4.602;2023-03-24T01:52:23;64582.03;;;12.43;100.00
41636;BME280;27623;51.966;4.602;2023-03-24T01:54:53;64569.09;;;12.33;100.00
41636;BME280;27623;51.966;4.602;2023-03-24T01:59:49;64532.59;;;12.30;100.00
41636;BME280;27623;51.966;4.602;2023-03-24T02:02:16;64589.53;;;12.33;100.00
41636;BME280;27623;51.966;4.602;2023-03-24T02:04:45;64569.09;;;12.26;100.00
41636;BME280;27623;51.966;4.602;2023-03-24T02:07:41;64535.53;;;12.21;100.00
41636;BME280;27623;51.966;4.602;2023-03-24T02:10:14;64553.63;;;12.10;100.00
41636;BME280;27623;51.966;4.602;2023-03-24T02:12:43;64526.47;;;11.94;100.00
41636;BME280;27623;51.966;4.602;2023-03-24T02:15:11;64533.41;;;11.91;100.00
41636;BME280;27623;51.966;4.602;2023-03-24T02:26:08;64487.31;;;11.67;100.00
41636;BME280;27623;51.966;4.602;2023-03-24T02:40:17;64484.97;;;11.55;100.00
41636;BME280;27623;51.966;4.602;2023-03-24T02:45:43;64481.53;;;11.43;100.00
41636;BME280;27623;51.966;4.602;2023-03-24T02:53:33;64449.47;;;11.36;100.00
41636;BME280;27623;51.966;4.602;2023-03-24T02:56:57;64418.16;;;11.19;100.00
41636;BME280;27623;51.966;4.602;2023-03-24T02:59:02;64398.31;;;11.20;100.00
41636;BME280;27623;51.966;4.602;2023-03-24T03:01:40;64428.91;;;11.13;100.00
41636;BME280;27623;51.966;4.602;2023-03-24T03:04:11;64425.81;;;11.12;100.00
41636;BME280;27623;51.966;4.602;2023-03-24T03:06:42;64438.03;;;11.19;100.00
41636;BME280;27623;51.966;4.602;2023-03-24T03:09:13;64429.28;;;11.18;100.00
41636;BME280;27623;51.966;4.602;2023-03-24T03:11:42;64434.38;;;11.11;100.00
41636;BME280;27623;51.966;4.602;2023-03-24T03:14:17;64438.56;;;11.19;100.00
41636;BME280;27623;51.966;4.602;2023-03-24T03:16:51;64415.06;;;11.12;100.00
41636;BME280;27623;51.966;4.602;2023-03-24T03:19:21;64417.09;;;11.04;100.00
41636;BME280;27623;51.966;4.602;2023-03-24T03:21:49;64399.78;;;11.05;100.00
41636;BME280;27623;51.966;4.602;2023-03-24T03:24:20;64428.38;;;11.05;100.00
41636;BME280;27623;51.966;4.602;2023-03-24T03:26:54;64425.28;;;11.05;100.00
41636;BME280;27623;51.966;4.602;2023-03-24T03:29:24;64380.16;;;10.93;100.00
41636;BME280;27623;51.966;4.602;2023-03-24T03:31:57;64377.44;;;10.84;100.00
41636;BME280;27623;51.966;4.602;2023-03-24T03:34:44;64409.28;;;10.94;100.00
41636;BME280;27623;51.966;4.602;2023-03-24T03:37:35;64438.78;;;11.00;100.00
41636;BME280;27623;51.966;4.602;2023-03-24T03:40:08;64379.75;;;11.02;100.00
41636;BME280;27623;51.966;4.602;2023-03-24T03:42:37;64410.38;;;10.95;100.00
41636;BME280;27623;51.966;4.602;2023-03-24T03:45:03;64409.09;;;10.85;100.00
41636;BME280;27623;51.966;4.602;2023-03-24T03:47:29;64394.00;;;10.87;100.00
41636;BME280;27623;51.966;4.602;2023-03-24T03:49:55;64371.06;;;10.87;100.00
41636;BME280;27623;51.966;4.602;2023-03-24T03:52:21;64440.59;;;10.90;100.00
41636;BME280;27623;51.966;4.602;2023-03-24T03:54:46;64400.38;;;10.91;100.00
41636;BME280;27623;51.966;4.602;2023-03-24T03:57:12;64392.72;;;10.91;100.00
41636;BME280;27623;51.966;4.602;2023-03-24T03:59:40;64415.47;;;10.88;100.00
41636;BME280;27623;51.966;4.602;2023-03-24T04:02:27;64401.47;;;10.92;100.00
41636;BME280;27623;51.966;4.602;2023-03-24T04:08:02;64388.53;;;10.89;100.00
41636;BME280;27623;51.966;4.602;2023-03-24T04:13:24;64385.06;;;10.84;100.00
41636;BME280;27623;51.966;4.602;2023-03-24T04:15:57;64365.63;;;10.61;100.00
41636;BME280;27623;51.966;4.602;2023-03-24T04:21:46;64396.94;;;10.71;100.00
41636;BME280;27623;51.966;4.602;2023-03-24T04:29:29;64373.44;;;10.71;100.00
41636;BME280;27623;51.966;4.602;2023-03-24T04:34:54;64376.03;;;10.49;100.00
41636;BME280;27623;51.966;4.602;2023-03-24T04:37:28;64353.66;;;10.50;100.00
41636;BME280;27623;51.966;4.602;2023-03-24T04:39:58;64347.44;;;10.56;100.00
41636;BME280;27623;51.966;4.602;2023-03-24T04:42:31;64347.44;;;10.56;100.00
41636;BME280;27623;51.966;4.602;2023-03-24T04:44:58;64330.53;;;10.40;100.00
41636;BME280;27623;51.966;4.602;2023-03-24T04:47:27;64368.94;;;10.43;100.00
41636;BME280;27623;51.966;4.602;2023-03-24T04:50:03;64351.47;;;10.48;100.00
41636;BME280;27623;51.966;4.602;2023-03-24T04:52:29;64350.72;;;10.45;100.00
41636;BME280;27623;51.966;4.602;2023-03-24T04:54:55;64323.66;;;10.36;100.00
41636;BME280;27623;51.966;4.602;2023-03-24T04:57:20;64365.28;;;10.42;100.00
41636;BME280;27623;51.966;4.602;2023-03-24T04:59:45;64348.72;;;10.52;100.00
41636;BME280;27623;51.966;4.602;2023-03-24T05:02:11;64345.28;;;10.54;100.00
41636;BME280;27623;51.966;4.602;2023-03-24T05:04:36;64370.94;;;10.49;100.00
41636;BME280;27623;51.966;4.602;2023-03-24T05:07:03;64352.72;;;10.44;100.00
41636;BME280;27623;51.966;4.602;2023-03-24T05:09:28;64324.53;;;10.56;100.00
41636;BME280;27623;51.966;4.602;2023-03-24T05:11:56;64348.38;;;10.54;100.00
41636;BME280;27623;51.966;4.602;2023-03-24T05:14:22;64324.19;;;10.37;100.00
41636;BME280;27623;51.966;4.602;2023-03-24T05:16:47;64367.09;;;10.60;100.00
41636;BME280;27623;51.966;4.602;2023-03-24T05:19:13;64392.78;;;10.48;100.00
41636;BME280;27623;51.966;4.602;2023-03-24T05:21:39;64352.19;;;10.51;100.00
41636;BME280;27623;51.966;4.602;2023-03-24T05:24:04;64383.13;;;10.56;100.00
41636;BME280;27623;51.966;4.602;2023-03-24T05:26:31;64370.38;;;10.42;100.00
41636;BME280;27623;51.966;4.602;2023-03-24T05:28:56;64365.47;;;10.51;100.00
41636;BME280;27623;51.966;4.602;2023-03-24T05:31:22;64334.94;;;10.37;100.00
41636;BME280;27623;51.966;4.602;2023-03-24T05:33:47;64381.31;;;10.52;100.00
41636;BME280;27623;51.966;4.602;2023-03-24T05:36:13;64387.47;;;10.60;100.00
41636;BME280;27623;51.966;4.602;2023-03-24T05:38:38;64338.34;;;10.50;100.00
41636;BME280;27623;51.966;4.602;2023-03-24T05:41:04;64344.38;;;10.48;100.00
41636;BME280;27623;51.966;4.602;2023-03-24T05:43:30;64348.72;;;10.52;100.00
41636;BME280;27623;51.966;4.602;2023-03-24T05:45:56;64338.19;;;10.47;100.00
41636;BME280;27623;51.966;4.602;2023-03-24T05:48:24;64365.66;;;10.54;100.00
41636;BME280;27623;51.966;4.602;2023-03-24T05:50:51;64361.84;;;10.50;100.00
41636;BME280;27623;51.966;4.602;2023-03-24T05:53:17;64318.50;;;10.57;100.00
41636;BME280;27623;51.966;4.602;2023-03-24T05:55:44;64354.91;;;10.53;100.00
41636;BME280;27623;51.966;4.602;2023-03-24T05:58:09;64358.56;;;10.47;100.00
41636;BME280;27623;51.966;4.602;2023-03-24T06:00:37;64342.34;;;10.56;100.00
41636;BME280;27623;51.966;4.602;2023-03-24T06:03:03;64321.06;;;10.57;100.00
41636;BME280;27623;51.966;4.602;2023-03-24T06:05:30;64366.00;;;10.59;100.00
41636;BME280;27623;51.966;4.602;2023-03-24T06:07:55;64399.69;;;10.59;100.00
41636;BME280;27623;51.966;4.602;2023-03-24T06:10:26;64369.09;;;10.59;100.00
41636;BME280;27623;51.966;4.602;2023-03-24T06:12:53;64388.19;;;10.63;100.00
41636;BME280;27623;51.966;4.602;2023-03-24T06:15:22;64347.25;;;10.60;100.00
41636;BME280;27623;51.966;4.602;2023-03-24T06:17:48;64350.72;;;10.52;100.00
41636;BME280;27623;51.966;4.602;2023-03-24T06:20:15;64379.47;;;10.55;100.00
41636;BME280;27623;51.966;4.602;2023-03-24T06:22:42;64390.75;;;10.63;100.00
41636;BME280;27623;51.966;4.602;2023-03-24T06:25:09;64379.28;;;10.66;100.00
41636;BME280;27623;51.966;4.602;2023-03-24T06:27:35;64347.09;;;10.58;100.00
41636;BME280;27623;51.966;4.602;2023-03-24T06:30:01;64380.00;;;10.62;100.00
41636;BME280;27623;51.966;4.602;2023-03-24T06:32:27;64376.56;;;10.57;100.00
41636;BME280;27623;51.966;4.602;2023-03-24T06:34:53;64352.88;;;10.61;100.00
41636;BME280;27623;51.966;4.602;2023-03-24T06:37:20;64368.19;;;10.61;100.00
41636;BME280;27623;51.966;4.602;2023-03-24T06:39:46;64365.81;;;10.63;100.00
41636;BME280;27623;51.966;4.602;2023-03-24T06:42:11;64340.00;;;10.58;100.00
41636;BME280;27623;51.966;4.602;2023-03-24T06:44:37;64369.63;;;10.60;100.00
41636;BME280;27623;51.966;4.602;2023-03-24T06:47:03;64365.09;;;10.53;100.00
41636;BME280;27623;51.966;4.602;2023-03-24T06:49:29;64358.19;;;10.56;100.00
41636;BME280;27623;51.966;4.602;2023-03-24T06:51:55;64362.53;;;10.60;100.00
41636;BME280;27623;51.966;4.602;2023-03-24T06:54:20;64385.28;;;10.65;100.00
41636;BME280;27623;51.966;4.602;2023-03-24T06:56:46;64344.19;;;10.46;100.00
41636;BME280;27623;51.966;4.602;2023-03-24T06:59:12;64338.91;;;10.57;100.00
41636;BME280;27623;51.966;4.602;2023-03-24T07:01:37;64340.53;;;10.59;100.00
41636;BME280;27623;51.966;4.602;2023-03-24T07:04:05;64353.97;;;10.69;100.00
41636;BME280;27623;51.966;4.602;2023-03-24T07:06:31;64384.75;;;10.72;100.00
41636;BME280;27623;51.966;4.602;2023-03-24T07:08:57;64367.09;;;10.67;100.00
41636;BME280;27623;51.966;4.602;2023-03-24T07:11:23;64368.19;;;10.61;100.00
41636;BME280;27623;51.966;4.602;2023-03-24T07:16:28;64364.88;;;10.79;100.00
41636;BME280;27623;51.966;4.602;2023-03-24T07:18:53;64385.63;;;10.84;100.00
41636;BME280;27623;51.966;4.602;2023-03-24T07:21:19;64380.53;;;10.84;100.00
41636;BME280;27623;51.966;4.602;2023-03-24T07:23:44;64390.34;;;10.86;100.00
41636;BME280;27623;51.966;4.602;2023-03-24T07:26:10;64422.03;;;10.94;100.00
41636;BME280;27623;51.966;4.602;2023-03-24T07:28:37;64422.94;;;10.93;100.00
41636;BME280;27623;51.966;4.602;2023-03-24T07:31:04;64406.56;;;10.92;100.00
41636;BME280;27623;51.966;4.602;2023-03-24T07:33:31;64428.78;;;10.96;100.00
41636;BME280;27623;51.966;4.602;2023-03-24T07:35:59;64380.50;;;10.98;100.00
41636;BME280;27623;51.966;4.602;2023-03-24T07:38:25;64399.81;;;10.90;100.00
41636;BME280;27623;51.966;4.602;2023-03-24T07:40:51;64402.16;;;11.02;100.00
41636;BME280;27623;51.966;4.602;2023-03-24T07:43:17;64392.34;;;11.00;100.00
41636;BME280;27623;51.966;4.602;2023-03-24T07:45:43;64399.59;;;11.02;100.00
41636;BME280;27623;51.966;4.602;2023-03-24T07:48:09;64395.78;;;11.06;100.00
41636;BME280;27623;51.966;4.602;2023-03-24T07:50:35;64399.59;;;11.16;100.00
41636;BME280;27623;51.966;4.602;2023-03-24T07:53:00;64451.88;;;11.20;100.00
41636;BME280;27623;51.966;4.602;2023-03-24T07:55:26;64423.09;;;11.02;100.00
41636;BME280;27623;51.966;4.602;2023-03-24T07:57:51;64441.13;;;11.05;100.00
41636;BME280;27623;51.966;4.602;2023-03-24T08:00:17;64409.06;;;11.06;100.00
41636;BME280;27623;51.966;4.602;2023-03-24T08:02:46;64427.09;;;11.16;100.00
41636;BME280;27623;51.966;4.602;2023-03-24T08:05:12;64444.78;;;11.13;100.00
41636;BME280;27623;51.966;4.602;2023-03-24T08:07:45;64399.59;;;11.16;100.00
41636;BME280;27623;51.966;4.602;2023-03-24T08:10:14;64407.59;;;11.21;100.00
41636;BME280;27623;51.966;4.602;2023-03-24T08:12:40;64463.13;;;11.28;100.00
41636;BME280;27623;51.966;4.602;2023-03-24T08:15:07;64451.47;;;11.36;100.00
41636;BME280;27623;51.966;4.602;2023-03-24T08:17:34;64487.72;;;11.44;100.00
41636;BME280;27623;51.966;4.602;2023-03-24T08:19:59;64448.72;;;11.41;100.00
41636;BME280;27623;51.966;4.602;2023-03-24T08:22:25;64465.84;;;11.45;100.00
41636;BME280;27623;51.966;4.602;2023-03-24T08:24:51;64489.34;;;11.59;100.00
41636;BME280;27623;51.966;4.602;2023-03-24T08:27:16;64475.28;;;11.63;100.00
41636;BME280;27623;51.966;4.602;2023-03-24T08:29:42;64428.97;;;11.65;100.00
41636;BME280;27623;51.966;4.602;2023-03-24T08:32:08;64470.19;;;11.56;100.00
41636;BME280;27623;51.966;4.602;2023-03-24T08:34:33;64456.19;;;11.45;100.00
41636;BME280;27623;51.966;4.602;2023-03-24T08:36:58;64462.94;;;11.40;100.00
41636;BME280;27623;51.966;4.602;2023-03-24T08:39:24;64454.00;;;11.43;100.00
41636;BME280;27623;51.966;4.602;2023-03-24T08:41:49;64433.97;;;11.41;99.83
41636;BME280;27623;51.966;4.602;2023-03-24T08:44:15;64454.03;;;11.36;100.00
41636;BME280;27623;51.966;4.602;2023-03-24T08:46:41;64470.59;;;11.40;100.00
41636;BME280;27623;51.966;4.602;2023-03-24T08:49:08;64421.41;;;11.29;100.00
41636;BME280;27623;51.966;4.602;2023-03-24T08:51:34;64467.28;;;11.44;100.00
41636;BME280;27623;51.966;4.602;2023-03-24T08:53:59;64473.13;;;11.54;99.64
41636;BME280;27623;51.966;4.602;2023-03-24T08:56:25;64480.03;;;11.58;100.00
41636;BME280;27623;51.966;4.602;2023-03-24T08:58:51;64502.81;;;11.62;98.67
41636;BME280;27623;51.966;4.602;2023-03-24T09:01:18;64500.81;;;11.63;97.74
41636;BME280;27623;51.966;4.602;2023-03-24T09:03:44;64439.75;;;11.51;97.67
41636;BME280;27623;51.966;4.602;2023-03-24T09:06:13;64466.53;;;11.62;97.94
41636;BME280;27623;51.966;4.602;2023-03-24T09:08:39;64487.50;;;11.77;95.19
41636;BME280;27623;51.966;4.602;2023-03-24T09:11:06;64469.06;;;11.76;94.33
41636;BME280;27623;51.966;4.602;2023-03-24T09:13:32;64486.38;;;11.68;93.40
41636;BME280;27623;51.966;4.602;2023-03-24T09:16:00;64511.91;;;11.83;91.34
41636;BME280;27623;51.966;4.602;2023-03-24T09:18:28;64495.16;;;11.77;89.80
41636;BME280;27623;51.966;4.602;2023-03-24T09:20:54;64496.44;;;11.80;89.84
41636;BME280;27623;51.966;4.602;2023-03-24T09:23:22;64471.44;;;11.81;90.79
41636;BME280;27623;51.966;4.602;2023-03-24T09:25:51;64501.13;;;11.89;92.07
41636;BME280;27623;51.966;4.602;2023-03-24T09:28:20;64529.88;;;12.21;92.69
41636;BME280;27623;51.966;4.602;2023-03-24T09:30:46;64592.28;;;12.22;90.78
41636;BME280;27623;51.966;4.602;2023-03-24T09:33:12;64550.34;;;12.14;90.16
41636;BME280;27623;51.966;4.602;2023-03-24T09:35:38;64525.44;;;12.38;91.93
41636;BME280;27623;51.966;4.602;2023-03-24T09:38:03;64554.84;;;12.42;88.96
41636;BME280;27623;51.966;4.602;2023-03-24T09:40:34;64609.19;;;12.52;88.89
41636;BME280;27623;51.966;4.602;2023-03-24T09:43:04;64567.06;;;12.41;89.56
41636;BME280;27623;51.966;4.602;2023-03-24T09:45:47;64558.66;;;12.45;88.14
41636;BME280;27623;51.966;4.602;2023-03-24T09:48:36;64591.84;;;12.59;89.01
41636;BME280;27623;51.966;4.602;2023-03-24T09:51:09;64642.91;;;12.88;87.86
41636;BME280;27623;51.966;4.602;2023-03-24T09:56:24;64627.50;;;13.02;86.71
41636;BME280;27623;51.966;4.602;2023-03-24T09:59:06;64687.78;;;13.22;85.35
41636;BME280;27623;51.966;4.602;2023-03-24T10:01:35;64658.72;;;13.24;83.64
41636;BME280;27623;51.966;4.602;2023-03-24T10:04:01;64640.28;;;13.09;83.45
41636;BME280;27623;51.966;4.602;2023-03-24T10:06:30;64662.19;;;13.15;83.03
41636;BME280;27623;51.966;4.602;2023-03-24T10:11:39;64661.28;;;13.09;83.03
41636;BME280;27623;51.966;4.602;2023-03-24T10:16:37;64711.81;;;13.52;82.18
41636;BME280;27623;51.966;4.602;2023-03-24T10:24:38;64678.59;;;13.37;80.04
41636;BME280;27623;51.966;4.602;2023-03-24T10:27:14;64638.59;;;13.22;82.99
41636;BME280;27623;51.966;4.602;2023-03-24T10:29:42;64642.81;;;13.23;83.62
41636;BME280;27623;51.966;4.602;2023-03-24T10:32:25;64615.81;;;13.03;83.70
41636;BME280;27623;51.966;4.602;2023-03-24T10:34:55;64671.81;;;13.36;82.70
41636;BME280;27623;51.966;4.602;2023-03-24T10:37:28;64687.63;;;13.65;82.23
41636;BME280;27623;51.966;4.602;2023-03-24T10:39:54;64697.16;;;13.62;81.01
41636;BME280;27623;51.966;4.602;2023-03-24T10:42:24;64723.66;;;13.67;82.09
41636;BME280;27623;51.966;4.602;2023-03-24T10:44:52;64683.59;;;13.66;80.73
41636;BME280;27623;51.966;4.602;2023-03-24T10:47:23;64707.75;;;13.67;81.56
41636;BME280;27623;51.966;4.602;2023-03-24T10:49:57;64666.41;;;13.69;79.62
41636;BME280;27623;51.966;4.602;2023-03-24T10:52:25;64753.34;;;14.04;80.38
41636;BME280;27623;51.966;4.602;2023-03-24T10:54:59;64727.56;;;13.95;79.54
41636;BME280;27623;51.966;4.602;2023-03-24T10:57:27;64710.84;;;13.67;80.48
41636;BME280;27623;51.966;4.602;2023-03-24T11:00:00;64724.94;;;13.64;80.60
41636;BME280;27623;51.966;4.602;2023-03-24T11:02:28;64697.69;;;13.62;79.57
41636;BME280;27623;51.966;4.602;2023-03-24T11:07:36;64674.53;;;13.46;82.44
41636;BME280;27623;51.966;4.602;2023-03-24T11:10:13;64701.91;;;13.57;81.44
41636;BME280;27623;51.966;4.602;2023-03-24T11:15:19;64751.22;;;13.88;79.14
41636;BME280;27623;51.966;4.602;2023-03-24T11:20:37;64673.00;;;13.68;75.17
41636;BME280;27623;51.966;4.602;2023-03-24T11:23:18;64676.13;;;13.61;74.83
41636;BME280;27623;51.966;4.602;2023-03-24T11:26:00;64688.38;;;13.61;74.80
41636;BME280;27623;51.966;4.602;2023-03-24T11:28:26;64731.06;;;13.93;74.78
41636;BME280;27623;51.966;4.602;2023-03-24T11:30:54;64760.34;;;13.94;75.05
41636;BME280;27623;51.966;4.602;2023-03-24T11:33:30;64759.41;;;13.96;76.27
41636;BME280;27623;51.966;4.602;2023-03-24T11:35:58;64678.47;;;13.66;76.80
41636;BME280;27623;51.966;4.602;2023-03-24T11:38:29;64691.19;;;13.42;77.11
41636;BME280;27623;51.966;4.602;2023-03-24T11:41:00;64671.69;;;13.19;78.69
41636;BME280;27623;51.966;4.602;2023-03-24T11:43:28;64652.69;;;13.18;78.26
41636;BME280;27623;51.966;4.602;2023-03-24T11:48:32;64700.25;;;13.62;78.47
41636;BME280;27623;51.966;4.602;2023-03-24T11:51:00;64694.84;;;13.88;78.18
41636;BME280;27623;51.966;4.602;2023-03-24T11:53:48;64684.75;;;13.53;78.86
41636;BME280;27623;51.966;4.602;2023-03-24T11:56:38;64718.66;;;13.84;78.66
41636;BME280;27623;51.966;4.602;2023-03-24T11:59:20;64775.78;;;14.25;74.64
41636;BME280;27623;51.966;4.602;2023-03-24T12:04:27;64859.44;;;14.93;72.50
41636;BME280;27623;51.966;4.602;2023-03-24T12:34:32;64883.72;;;15.11;67.20
41636;BME280;27623;51.966;4.602;2023-03-24T12:37:24;64883.25;;;15.34;67.39
41636;BME280;27623;51.966;4.602;2023-03-24T12:42:56;64846.25;;;14.88;65.71
41636;BME280;27623;51.966;4.602;2023-03-24T12:48:26;64935.59;;;15.64;64.63
41636;BME280;27623;51.966;4.602;2023-03-24T12:51:16;64997.03;;;16.13;63.85
41636;BME280;27623;51.966;4.602;2023-03-24T12:56:53;64971.63;;;15.88;62.91
41636;BME280;27623;51.966;4.602;2023-03-24T12:59:31;64977.28;;;15.95;62.24
41636;BME280;27623;51.966;4.602;2023-03-24T13:02:07;65010.25;;;16.11;63.90
41636;BME280;27623;51.966;4.602;2023-03-24T13:04:38;64979.84;;;15.95;63.56
41636;BME280;27623;51.966;4.602;2023-03-24T13:07:11;64927.22;;;15.46;64.26
41636;BME280;27623;51.966;4.602;2023-03-24T13:12:43;64828.50;;;14.76;69.21
41636;BME280;27623;51.966;4.602;2023-03-24T13:17:44;64797.91;;;14.41;68.45
41636;BME280;27623;51.966;4.602;2023-03-24T13:20:15;64766.00;;;14.40;69.13
41636;BME280;27623;51.966;4.602;2023-03-24T13:22:44;64781.63;;;14.28;70.16
41636;BME280;27623;51.966;4.602;2023-03-24T13:25:47;64826.28;;;14.82;67.76
41636;BME280;27623;51.966;4.602;2023-03-24T13:28:12;64831.22;;;14.86;67.38
41636;BME280;27623;51.966;4.602;2023-03-24T13:30:40;64896.00;;;15.56;66.21
41636;BME280;27623;51.966;4.602;2023-03-24T13:35:44;64831.41;;;14.89;67.18
41636;BME280;27623;51.966;4.602;2023-03-24T13:38:36;64784.56;;;14.71;68.52
41636;BME280;27623;51.966;4.602;2023-03-24T13:41:04;64840.53;;;14.95;67.82
41636;BME280;27623;51.966;4.602;2023-03-24T13:43:31;64913.91;;;15.32;66.09
41636;BME280;27623;51.966;4.602;2023-03-24T13:46:03;64910.03;;;15.35;65.09
41636;BME280;27623;51.966;4.602;2023-03-24T13:48:40;64813.91;;;14.65;66.72
41636;BME280;27623;51.966;4.602;2023-03-24T13:51:19;64817.38;;;14.71;68.43
41636;BME280;27623;51.966;4.602;2023-03-24T13:53:54;64828.50;;;14.84;67.15
41636;BME280;27623;51.966;4.602;2023-03-24T13:56:24;64807.34;;;14.59;68.17
41636;BME280;27623;51.966;4.602;2023-03-24T14:01:37;64788.91;;;14.44;67.56
41636;BME280;27623;51.966;4.602;2023-03-24T14:06:47;64734.31;;;14.03;69.48
41636;BME280;27623;51.966;4.602;2023-03-24T14:09:25;64739.34;;;14.25;70.82
41636;BME280;27623;51.966;4.602;2023-03-24T14:14:21;64845.81;;;15.04;67.07
41636;BME280;27623;51.966;4.602;2023-03-24T14:19:28;64871.13;;;14.99;65.53
41636;BME280;27623;51.966;4.602;2023-03-24T14:24:29;64888.16;;;15.39;64.65
41636;BME280;27623;51.966;4.602;2023-03-24T14:26:57;64889.31;;;15.33;64.27
41636;BME280;27623;51.966;4.602;2023-03-24T14:29:37;64860.19;;;15.20;63.88
41636;BME280;27623;51.966;4.602;2023-03-24T14:32:04;64915.03;;;15.19;65.13
41636;BME280;27623;51.966;4.602;2023-03-24T14:34:30;64963.47;;;15.66;63.71
41636;BME280;27623;51.966;4.602;2023-03-24T14:37:01;64939.34;;;15.81;63.59
41636;BME280;27623;51.966;4.602;2023-03-24T14:39:44;64956.94;;;15.91;62.16
41636;BME280;27623;51.966;4.602;2023-03-24T14:48:02;64931.00;;;15.64;63.15
41636;BME280;27623;51.966;4.602;2023-03-24T14:50:28;64934.50;;;15.63;64.48
41636;BME280;27623;51.966;4.602;2023-03-24T14:53:01;64867.88;;;15.27;64.77
41636;BME280;27623;51.966;4.602;2023-03-24T14:55:27;64873.38;;;15.25;65.24
41636;BME280;27623;51.966;4.602;2023-03-24T14:57:54;64923.19;;;15.40;65.25
41636;BME280;27623;51.966;4.602;2023-03-24T15:00:30;64920.91;;;15.60;64.51
41636;BME280;27623;51.966;4.602;2023-03-24T15:03:13;64918.75;;;15.58;64.34
41636;BME280;27623;51.966;4.602;2023-03-24T15:05:42;64962.84;;;15.79;63.46
41636;BME280;27623;51.966;4.602;2023-03-24T15:08:13;64952.28;;;15.67;63.93
41636;BME280;27623;51.966;4.602;2023-03-24T15:10:47;64982.97;;;15.96;63.05
41636;BME280;27623;51.966;4.602;2023-03-24T15:15:58;64938.66;;;15.78;62.76
41636;BME280;27623;51.966;4.602;2023-03-24T15:18:24;64914.88;;;15.54;63.04
41636;BME280;27623;51.966;4.602;2023-03-24T15:20:50;64869.34;;;15.26;63.80
41636;BME280;27623;51.966;4.602;2023-03-24T15:23:21;64890.97;;;15.34;62.85
41636;BME280;27623;51.966;4.602;2023-03-24T15:25:47;64878.72;;;15.21;63.59
41636;BME280;27623;51.966;4.602;2023-03-24T15:30:43;64929.66;;;15.75;62.64
41636;BME280;27623;51.966;4.602;2023-03-24T15:33:10;64949.31;;;15.76;64.06
41636;BME280;27623;51.966;4.602;2023-03-24T15:35:35;64913.53;;;15.72;63.13